Forest Lakes, Arizona
Current Conditions -  °F | °C
As of 10:35 AM on Monday 22 Dec 2014 (Local Time) from KSOW Reporting Station
Clear Clear  
Wind Chill: 50°   Ceiling: Unl
Heat Index: 50°   Visibility: 10mi
Dew Point: 32°   Wind: 7mph
Humidity: 50%   Direction: 330°NNW
Pressure: 30.07"   Gusts: NA
Location:  34.43°N, 110.6°W
Report Text: KSOW 221735Z AUTO 33006KT 10SM CLR 10/00 A3007 RMK AO2
Loading
Personal Weather Stations






























Interactive Weather Map New forecast layout! Learn more

10-Day Weather Forecast

Advertisements
Track Severe Weather on mobile